sensor_id;sensor_type;location;lat;lon;timestamp;temperature;humidity
65460;DHT22;52058;49.822;6.754;2022-07-30T00:00:56;17.76;71.20
65460;DHT22;52058;49.822;6.754;2022-07-30T00:03:21;17.71;71.12
65460;DHT22;52058;49.822;6.754;2022-07-30T00:05:47;17.61;71.22
65460;DHT22;52058;49.822;6.754;2022-07-30T00:08:12;17.36;71.55
65460;DHT22;52058;49.822;6.754;2022-07-30T00:10:38;17.38;71.59
65460;DHT22;52058;49.822;6.754;2022-07-30T00:13:04;17.39;71.38
65460;DHT22;52058;49.822;6.754;2022-07-30T00:15:29;17.41;71.33
65460;DHT22;52058;49.822;6.754;2022-07-30T00:17:54;17.41;71.44
65460;DHT22;52058;49.822;6.754;2022-07-30T00:20:20;17.41;71.49
65460;DHT22;52058;49.822;6.754;2022-07-30T00:22:45;17.38;71.58
65460;DHT22;52058;49.822;6.754;2022-07-30T00:25:11;17.28;72.47
65460;DHT22;52058;49.822;6.754;2022-07-30T00:27:36;17.18;71.91
65460;DHT22;52058;49.822;6.754;2022-07-30T00:30:03;17.23;71.78
65460;DHT22;52058;49.822;6.754;2022-07-30T00:32:28;17.23;71.52
65460;DHT22;52058;49.822;6.754;2022-07-30T00:34:54;16.96;72.60
65460;DHT22;52058;49.822;6.754;2022-07-30T00:37:19;16.83;72.29
65460;DHT22;52058;49.822;6.754;2022-07-30T00:39:45;16.99;72.01
65460;DHT22;52058;49.822;6.754;2022-07-30T00:42:11;16.96;72.15
65460;DHT22;52058;49.822;6.754;2022-07-30T00:44:36;16.86;72.37
65460;DHT22;52058;49.822;6.754;2022-07-30T00:47:01;16.88;72.36
65460;DHT22;52058;49.822;6.754;2022-07-30T00:49:27;16.63;72.94
65460;DHT22;52058;49.822;6.754;2022-07-30T00:51:52;16.69;72.63
65460;DHT22;52058;49.822;6.754;2022-07-30T00:54:18;16.75;72.37
65460;DHT22;52058;49.822;6.754;2022-07-30T00:56:45;16.75;72.37
65460;DHT22;52058;49.822;6.754;2022-07-30T00:59:12;16.70;72.59
65460;DHT22;52058;49.822;6.754;2022-07-30T01:01:37;16.76;72.44
65460;DHT22;52058;49.822;6.754;2022-07-30T01:04:03;16.79;72.57
65460;DHT22;52058;49.822;6.754;2022-07-30T01:06:28;16.73;72.88
65460;DHT22;52058;49.822;6.754;2022-07-30T01:08:54;16.59;73.47
65460;DHT22;52058;49.822;6.754;2022-07-30T01:11:21;16.69;73.49
65460;DHT22;52058;49.822;6.754;2022-07-30T01:13:47;16.72;73.26
65460;DHT22;52058;49.822;6.754;2022-07-30T01:16:12;16.55;73.66
65460;DHT22;52058;49.822;6.754;2022-07-30T01:18:40;16.60;73.55
65460;DHT22;52058;49.822;6.754;2022-07-30T01:21:35;16.55;74.16
65460;DHT22;52058;49.822;6.754;2022-07-30T01:27:14;16.29;74.69
65460;DHT22;52058;49.822;6.754;2022-07-30T01:29:41;16.39;74.48
65460;DHT22;52058;49.822;6.754;2022-07-30T01:32:09;16.42;74.39
65460;DHT22;52058;49.822;6.754;2022-07-30T01:34:36;16.42;74.76
65460;DHT22;52058;49.822;6.754;2022-07-30T01:37:03;16.44;75.12
65460;DHT22;52058;49.822;6.754;2022-07-30T01:39:29;16.35;75.63
65460;DHT22;52058;49.822;6.754;2022-07-30T01:41:56;16.32;75.89
65460;DHT22;52058;49.822;6.754;2022-07-30T01:44:25;16.42;75.59
65460;DHT22;52058;49.822;6.754;2022-07-30T01:46:52;16.29;76.14
65460;DHT22;52058;49.822;6.754;2022-07-30T01:49:18;16.22;76.57
65460;DHT22;52058;49.822;6.754;2022-07-30T01:51:46;16.18;76.85
65460;DHT22;52058;49.822;6.754;2022-07-30T01:54:13;16.17;76.97
65460;DHT22;52058;49.822;6.754;2022-07-30T01:56:41;16.32;76.59
65460;DHT22;52058;49.822;6.754;2022-07-30T01:59:08;16.26;76.52
65460;DHT22;52058;49.822;6.754;2022-07-30T02:01:35;16.29;76.51
65460;DHT22;52058;49.822;6.754;2022-07-30T02:04:01;16.24;76.58
65460;DHT22;52058;49.822;6.754;2022-07-30T02:06:33;16.26;76.59
65460;DHT22;52058;49.822;6.754;2022-07-30T02:09:03;16.17;76.36
65460;DHT22;52058;49.822;6.754;2022-07-30T02:11:31;16.09;76.58
65460;DHT22;52058;49.822;6.754;2022-07-30T02:14:21;16.15;75.52
65460;DHT22;52058;49.822;6.754;2022-07-30T02:16:52;16.15;74.51
65460;DHT22;52058;49.822;6.754;2022-07-30T02:19:19;16.14;73.77
65460;DHT22;52058;49.822;6.754;2022-07-30T02:21:48;16.07;73.60
65460;DHT22;52058;49.822;6.754;2022-07-30T02:24:19;15.86;74.25
65460;DHT22;52058;49.822;6.754;2022-07-30T02:26:49;15.93;74.58
65460;DHT22;52058;49.822;6.754;2022-07-30T02:29:17;15.76;74.83
65460;DHT22;52058;49.822;6.754;2022-07-30T02:31:44;15.57;76.27
65460;DHT22;52058;49.822;6.754;2022-07-30T02:34:09;15.59;77.55
65460;DHT22;52058;49.822;6.754;2022-07-30T02:36:38;15.37;75.87
65460;DHT22;52058;49.822;6.754;2022-07-30T02:39:06;15.43;75.75
65460;DHT22;52058;49.822;6.754;2022-07-30T02:41:34;15.39;75.21
65460;DHT22;52058;49.822;6.754;2022-07-30T02:44:00;15.44;75.66
65460;DHT22;52058;49.822;6.754;2022-07-30T02:46:27;15.20;75.41
65460;DHT22;52058;49.822;6.754;2022-07-30T02:48:54;15.23;75.76
65460;DHT22;52058;49.822;6.754;2022-07-30T02:51:20;15.33;75.45
65460;DHT22;52058;49.822;6.754;2022-07-30T02:53:47;15.37;75.21
65460;DHT22;52058;49.822;6.754;2022-07-30T02:56:14;15.35;75.30
65460;DHT22;52058;49.822;6.754;2022-07-30T02:58:41;15.40;74.97
65460;DHT22;52058;49.822;6.754;2022-07-30T03:01:08;15.44;74.76
65460;DHT22;52058;49.822;6.754;2022-07-30T03:03:34;15.50;74.55
65460;DHT22;52058;49.822;6.754;2022-07-30T03:06:00;15.47;74.64
65460;DHT22;52058;49.822;6.754;2022-07-30T03:08:26;15.42;74.86
65460;DHT22;52058;49.822;6.754;2022-07-30T03:10:54;15.37;75.51
65460;DHT22;52058;49.822;6.754;2022-07-30T03:13:20;15.35;76.46
65460;DHT22;52058;49.822;6.754;2022-07-30T03:15:48;15.22;77.34
65460;DHT22;52058;49.822;6.754;2022-07-30T03:18:16;15.33;77.48
65460;DHT22;52058;49.822;6.754;2022-07-30T03:20:45;15.37;77.77
65460;DHT22;52058;49.822;6.754;2022-07-30T03:23:12;15.47;77.52
65460;DHT22;52058;49.822;6.754;2022-07-30T03:25:40;15.44;77.55
65460;DHT22;52058;49.822;6.754;2022-07-30T03:28:06;15.25;77.92
65460;DHT22;52058;49.822;6.754;2022-07-30T03:30:33;15.35;77.74
65460;DHT22;52058;49.822;6.754;2022-07-30T03:32:59;15.39;77.42
65460;DHT22;52058;49.822;6.754;2022-07-30T03:35:25;15.26;77.83
65460;DHT22;52058;49.822;6.754;2022-07-30T03:37:51;15.29;77.83
65460;DHT22;52058;49.822;6.754;2022-07-30T03:40:17;15.30;77.96
65460;DHT22;52058;49.822;6.754;2022-07-30T03:42:44;15.26;78.07
65460;DHT22;52058;49.822;6.754;2022-07-30T03:45:10;15.28;77.94
65460;DHT22;52058;49.822;6.754;2022-07-30T03:47:38;15.28;78.07
65460;DHT22;52058;49.822;6.754;2022-07-30T03:50:05;15.35;77.84
65460;DHT22;52058;49.822;6.754;2022-07-30T03:52:36;15.36;78.17
65460;DHT22;52058;49.822;6.754;2022-07-30T03:55:03;15.28;78.46
65460;DHT22;52058;49.822;6.754;2022-07-30T03:57:29;15.23;78.55
65460;DHT22;52058;49.822;6.754;2022-07-30T03:59:54;15.30;78.24
65460;DHT22;52058;49.822;6.754;2022-07-30T04:02:20;15.30;78.00
65460;DHT22;52058;49.822;6.754;2022-07-30T04:04:45;15.35;77.72
65460;DHT22;52058;49.822;6.754;2022-07-30T04:07:10;15.37;77.65
65460;DHT22;52058;49.822;6.754;2022-07-30T04:09:36;15.40;77.58
65460;DHT22;52058;49.822;6.754;2022-07-30T04:12:01;15.32;77.76
65460;DHT22;52058;49.822;6.754;2022-07-30T04:14:38;15.18;78.16
65460;DHT22;52058;49.822;6.754;2022-07-30T04:17:11;15.10;78.37
65460;DHT22;52058;49.822;6.754;2022-07-30T04:19:41;15.10;78.45
65460;DHT22;52058;49.822;6.754;2022-07-30T04:22:08;15.08;78.46
65460;DHT22;52058;49.822;6.754;2022-07-30T04:24:35;15.18;78.35
65460;DHT22;52058;49.822;6.754;2022-07-30T04:27:02;15.20;78.24
65460;DHT22;52058;49.822;6.754;2022-07-30T04:29:28;15.22;78.25
65460;DHT22;52058;49.822;6.754;2022-07-30T04:31:53;15.30;77.18
65460;DHT22;52058;49.822;6.754;2022-07-30T04:34:18;15.18;77.50
65460;DHT22;52058;49.822;6.754;2022-07-30T04:36:44;15.20;77.96
65460;DHT22;52058;49.822;6.754;2022-07-30T04:39:09;15.20;78.20
65460;DHT22;52058;49.822;6.754;2022-07-30T04:41:35;15.10;78.24
65460;DHT22;52058;49.822;6.754;2022-07-30T04:44:00;15.20;77.42
65460;DHT22;52058;49.822;6.754;2022-07-30T04:46:25;15.15;75.74
65460;DHT22;52058;49.822;6.754;2022-07-30T04:48:51;15.26;75.57
65460;DHT22;52058;49.822;6.754;2022-07-30T04:51:23;15.32;75.65
65460;DHT22;52058;49.822;6.754;2022-07-30T04:53:49;15.26;75.36
65460;DHT22;52058;49.822;6.754;2022-07-30T04:56:15;15.32;75.40
65460;DHT22;52058;49.822;6.754;2022-07-30T04:58:43;15.33;75.43
65460;DHT22;52058;49.822;6.754;2022-07-30T05:01:10;15.43;75.30
65460;DHT22;52058;49.822;6.754;2022-07-30T05:03:37;15.10;76.33
65460;DHT22;52058;49.822;6.754;2022-07-30T05:06:04;15.13;76.25
65460;DHT22;52058;49.822;6.754;2022-07-30T05:08:29;15.42;75.85
65460;DHT22;52058;49.822;6.754;2022-07-30T05:10:55;15.54;75.70
65460;DHT22;52058;49.822;6.754;2022-07-30T05:13:20;15.61;75.47
65460;DHT22;52058;49.822;6.754;2022-07-30T05:15:46;15.68;75.40
65460;DHT22;52058;49.822;6.754;2022-07-30T05:18:11;15.70;75.53
65460;DHT22;52058;49.822;6.754;2022-07-30T05:20:37;15.54;75.89
65460;DHT22;52058;49.822;6.754;2022-07-30T05:23:04;15.56;76.04
65460;DHT22;52058;49.822;6.754;2022-07-30T05:25:29;15.61;76.14
65460;DHT22;52058;49.822;6.754;2022-07-30T05:27:54;15.64;75.94
65460;DHT22;52058;49.822;6.754;2022-07-30T05:30:21;15.71;75.88
65460;DHT22;52058;49.822;6.754;2022-07-30T05:32:46;15.70;75.73
65460;DHT22;52058;49.822;6.754;2022-07-30T05:35:11;15.71;75.87
65460;DHT22;52058;49.822;6.754;2022-07-30T05:37:37;15.81;75.58
65460;DHT22;52058;49.822;6.754;2022-07-30T05:40:02;15.88;75.59
65460;DHT22;52058;49.822;6.754;2022-07-30T05:42:28;16.00;75.20
65460;DHT22;52058;49.822;6.754;2022-07-30T05:44:53;16.07;75.43
65460;DHT22;52058;49.822;6.754;2022-07-30T05:47:18;16.18;74.72
65460;DHT22;52058;49.822;6.754;2022-07-30T05:49:45;16.30;74.66
65460;DHT22;52058;49.822;6.754;2022-07-30T05:52:10;16.36;74.44
65460;DHT22;52058;49.822;6.754;2022-07-30T05:54:36;16.55;73.88
65460;DHT22;52058;49.822;6.754;2022-07-30T05:57:01;16.55;73.84
65460;DHT22;52058;49.822;6.754;2022-07-30T05:59:26;16.63;73.71
65460;DHT22;52058;49.822;6.754;2022-07-30T06:01:52;16.62;73.59
65460;DHT22;52058;49.822;6.754;2022-07-30T06:04:17;16.67;73.82
65460;DHT22;52058;49.822;6.754;2022-07-30T06:06:42;16.81;72.96
65460;DHT22;52058;49.822;6.754;2022-07-30T06:09:07;17.06;72.78
65460;DHT22;52058;49.822;6.754;2022-07-30T06:11:33;17.79;71.52
65460;DHT22;52058;49.822;6.754;2022-07-30T06:13:58;18.45;70.08
65460;DHT22;52058;49.822;6.754;2022-07-30T06:16:23;18.82;69.33
65460;DHT22;52058;49.822;6.754;2022-07-30T06:18:49;19.12;69.06
65460;DHT22;52058;49.822;6.754;2022-07-30T06:21:14;20.15;66.93
65460;DHT22;52058;49.822;6.754;2022-07-30T06:23:39;21.25;64.46
65460;DHT22;52058;49.822;6.754;2022-07-30T06:26:04;21.45;63.01
65460;DHT22;52058;49.822;6.754;2022-07-30T06:28:30;23.05;59.38
65460;DHT22;52058;49.822;6.754;2022-07-30T06:30:55;24.17;56.98
65460;DHT22;52058;49.822;6.754;2022-07-30T06:33:21;25.54;52.41
65460;DHT22;52058;49.822;6.754;2022-07-30T06:35:46;24.39;54.62
65460;DHT22;52058;49.822;6.754;2022-07-30T06:38:13;22.85;59.31
65460;DHT22;52058;49.822;6.754;2022-07-30T06:40:38;25.42;53.10
65460;DHT22;52058;49.822;6.754;2022-07-30T06:43:03;23.81;56.01
65460;DHT22;52058;49.822;6.754;2022-07-30T06:45:29;22.47;59.85
65460;DHT22;52058;49.822;6.754;2022-07-30T06:47:58;21.76;61.86
65460;DHT22;52058;49.822;6.754;2022-07-30T06:50:24;22.45;60.43
65460;DHT22;52058;49.822;6.754;2022-07-30T06:52:50;21.92;61.33
65460;DHT22;52058;49.822;6.754;2022-07-30T06:55:15;21.07;63.11
65460;DHT22;52058;49.822;6.754;2022-07-30T06:57:40;20.91;63.85
65460;DHT22;52058;49.822;6.754;2022-07-30T07:00:06;21.31;62.51
65460;DHT22;52058;49.822;6.754;2022-07-30T07:02:32;22.20;60.01
65460;DHT22;52058;49.822;6.754;2022-07-30T07:04:57;22.57;59.74
65460;DHT22;52058;49.822;6.754;2022-07-30T07:07:23;22.23;60.75
65460;DHT22;52058;49.822;6.754;2022-07-30T07:09:49;22.84;58.96
65460;DHT22;52058;49.822;6.754;2022-07-30T07:12:14;23.09;57.81
65460;DHT22;52058;49.822;6.754;2022-07-30T07:14:39;22.71;58.85
65460;DHT22;52058;49.822;6.754;2022-07-30T07:17:04;22.72;58.24
65460;DHT22;52058;49.822;6.754;2022-07-30T07:19:30;22.75;57.96
65460;DHT22;52058;49.822;6.754;2022-07-30T07:21:55;22.96;57.74
65460;DHT22;52058;49.822;6.754;2022-07-30T07:24:20;22.65;58.03
65460;DHT22;52058;49.822;6.754;2022-07-30T07:26:46;22.47;58.34
65460;DHT22;52058;49.822;6.754;2022-07-30T07:29:11;22.47;58.45
65460;DHT22;52058;49.822;6.754;2022-07-30T07:31:36;22.44;57.61
65460;DHT22;52058;49.822;6.754;2022-07-30T07:34:02;22.67;56.84
65460;DHT22;52058;49.822;6.754;2022-07-30T07:36:27;22.94;56.14
65460;DHT22;52058;49.822;6.754;2022-07-30T07:38:53;26.09;48.79
65460;DHT22;52058;49.822;6.754;2022-07-30T07:41:18;28.72;44.20
65460;DHT22;52058;49.822;6.754;2022-07-30T07:43:43;26.94;46.63
65460;DHT22;52058;49.822;6.754;2022-07-30T07:46:08;27.42;46.34
65460;DHT22;52058;49.822;6.754;2022-07-30T07:48:34;26.23;48.32
65460;DHT22;52058;49.822;6.754;2022-07-30T07:50:59;26.00;49.16
65460;DHT22;52058;49.822;6.754;2022-07-30T07:53:25;25.62;49.74
65460;DHT22;52058;49.822;6.754;2022-07-30T07:55:50;27.11;47.09
65460;DHT22;52058;49.822;6.754;2022-07-30T07:58:16;31.36;39.71
65460;DHT22;52058;49.822;6.754;2022-07-30T08:00:41;34.23;35.22
65460;DHT22;52058;49.822;6.754;2022-07-30T08:03:07;35.34;33.64
65460;DHT22;52058;49.822;6.754;2022-07-30T08:05:32;37.42;30.68
65460;DHT22;52058;49.822;6.754;2022-07-30T08:07:58;38.49;29.55
65460;DHT22;52058;49.822;6.754;2022-07-30T08:10:23;40.52;27.51
65460;DHT22;52058;49.822;6.754;2022-07-30T08:12:49;39.65;27.72
65460;DHT22;52058;49.822;6.754;2022-07-30T08:15:14;41.28;26.63
65460;DHT22;52058;49.822;6.754;2022-07-30T08:17:41;39.07;28.58
65460;DHT22;52058;49.822;6.754;2022-07-30T08:20:07;41.74;26.23
65460;DHT22;52058;49.822;6.754;2022-07-30T08:22:33;40.96;26.62
65460;DHT22;52058;49.822;6.754;2022-07-30T08:24:58;40.75;26.51
65460;DHT22;52058;49.822;6.754;2022-07-30T08:27:24;40.94;26.42
65460;DHT22;52058;49.822;6.754;2022-07-30T08:29:50;41.76;25.49
65460;DHT22;52058;49.822;6.754;2022-07-30T08:32:15;41.46;25.87
65460;DHT22;52058;49.822;6.754;2022-07-30T08:34:40;42.68;24.84
65460;DHT22;52058;49.822;6.754;2022-07-30T08:37:06;39.91;26.33
65460;DHT22;52058;49.822;6.754;2022-07-30T08:39:31;37.12;29.70
65460;DHT22;52058;49.822;6.754;2022-07-30T08:41:57;39.51;27.96
65460;DHT22;52058;49.822;6.754;2022-07-30T08:44:23;42.48;24.43
65460;DHT22;52058;49.822;6.754;2022-07-30T08:46:50;44.08;23.35
65460;DHT22;52058;49.822;6.754;2022-07-30T08:49:17;43.67;23.53
65460;DHT22;52058;49.822;6.754;2022-07-30T08:51:43;42.89;23.73
65460;DHT22;52058;49.822;6.754;2022-07-30T08:54:08;41.64;24.38
65460;DHT22;52058;49.822;6.754;2022-07-30T08:56:34;41.78;24.48
65460;DHT22;52058;49.822;6.754;2022-07-30T08:59:00;42.88;23.39
65460;DHT22;52058;49.822;6.754;2022-07-30T09:01:26;44.45;22.16
65460;DHT22;52058;49.822;6.754;2022-07-30T09:03:51;43.19;22.52
65460;DHT22;52058;49.822;6.754;2022-07-30T09:06:16;43.33;22.09
65460;DHT22;52058;49.822;6.754;2022-07-30T09:08:42;44.05;21.57
65460;DHT22;52058;49.822;6.754;2022-07-30T09:11:07;42.27;22.57
65460;DHT22;52058;49.822;6.754;2022-07-30T09:13:37;43.30;22.16
65460;DHT22;52058;49.822;6.754;2022-07-30T09:16:04;43.36;22.16
65460;DHT22;52058;49.822;6.754;2022-07-30T09:18:32;44.64;20.69
65460;DHT22;52058;49.822;6.754;2022-07-30T09:21:14;44.86;20.36
65460;DHT22;52058;49.822;6.754;2022-07-30T09:26:18;43.36;20.13
65460;DHT22;52058;49.822;6.754;2022-07-30T09:28:44;42.98;21.08
65460;DHT22;52058;49.822;6.754;2022-07-30T09:31:09;43.66;20.27
65460;DHT22;52058;49.822;6.754;2022-07-30T09:33:38;44.88;19.64
65460;DHT22;52058;49.822;6.754;2022-07-30T09:36:05;46.45;18.66
65460;DHT22;52058;49.822;6.754;2022-07-30T09:41:10;46.56;18.75
65460;DHT22;52058;49.822;6.754;2022-07-30T09:43:47;47.03;18.42
65460;DHT22;52058;49.822;6.754;2022-07-30T09:46:14;46.48;17.90
65460;DHT22;52058;49.822;6.754;2022-07-30T09:48:40;47.47;17.70
65460;DHT22;52058;49.822;6.754;2022-07-30T09:51:05;47.43;18.23
65460;DHT22;52058;49.822;6.754;2022-07-30T09:53:31;45.13;18.06
65460;DHT22;52058;49.822;6.754;2022-07-30T09:55:57;43.97;18.29
65460;DHT22;52058;49.822;6.754;2022-07-30T09:58:24;42.72;19.14
65460;DHT22;52058;49.822;6.754;2022-07-30T10:01:01;43.03;19.96
65460;DHT22;52058;49.822;6.754;2022-07-30T10:03:26;43.43;19.71
65460;DHT22;52058;49.822;6.754;2022-07-30T10:05:54;44.28;19.55
65460;DHT22;52058;49.822;6.754;2022-07-30T10:08:20;44.71;19.25
65460;DHT22;52058;49.822;6.754;2022-07-30T10:11:01;45.98;18.82
65460;DHT22;52058;49.822;6.754;2022-07-30T10:13:27;45.01;18.36
65460;DHT22;52058;49.822;6.754;2022-07-30T10:15:52;45.95;18.26
65460;DHT22;52058;49.822;6.754;2022-07-30T10:18:17;45.73;17.82
65460;DHT22;52058;49.822;6.754;2022-07-30T10:20:43;45.12;18.42
65460;DHT22;52058;49.822;6.754;2022-07-30T10:23:09;46.07;18.45
65460;DHT22;52058;49.822;6.754;2022-07-30T10:25:35;46.36;18.33
65460;DHT22;52058;49.822;6.754;2022-07-30T10:28:01;45.22;18.37
65460;DHT22;52058;49.822;6.754;2022-07-30T10:30:27;46.49;18.23
65460;DHT22;52058;49.822;6.754;2022-07-30T10:32:55;46.92;17.28
65460;DHT22;52058;49.822;6.754;2022-07-30T10:35:21;46.14;18.17
65460;DHT22;52058;49.822;6.754;2022-07-30T10:37:48;46.93;17.64
65460;DHT22;52058;49.822;6.754;2022-07-30T10:40:24;45.61;18.34
65460;DHT22;52058;49.822;6.754;2022-07-30T10:45:46;45.95;19.13
65460;DHT22;52058;49.822;6.754;2022-07-30T10:48:18;44.54;18.87
65460;DHT22;52058;49.822;6.754;2022-07-30T10:51:02;44.56;19.02
65460;DHT22;52058;49.822;6.754;2022-07-30T10:56:22;45.76;19.65
65460;DHT22;52058;49.822;6.754;2022-07-30T10:59:07;44.18;19.74
65460;DHT22;52058;49.822;6.754;2022-07-30T11:04:17;43.08;20.44
65460;DHT22;52058;49.822;6.754;2022-07-30T11:06:43;45.07;19.29
65460;DHT22;52058;49.822;6.754;2022-07-30T11:09:37;42.58;20.32
65460;DHT22;52058;49.822;6.754;2022-07-30T11:12:07;43.96;19.94
65460;DHT22;52058;49.822;6.754;2022-07-30T11:17:11;45.17;18.85
65460;DHT22;52058;49.822;6.754;2022-07-30T11:22:34;44.41;18.57
65460;DHT22;52058;49.822;6.754;2022-07-30T11:25:05;44.13;19.15
65460;DHT22;52058;49.822;6.754;2022-07-30T11:27:38;44.01;18.68
65460;DHT22;52058;49.822;6.754;2022-07-30T11:30:05;43.29;18.68
65460;DHT22;52058;49.822;6.754;2022-07-30T11:35:41;41.96;20.78
65460;DHT22;52058;49.822;6.754;2022-07-30T11:38:11;39.00;21.09
65460;DHT22;52058;49.822;6.754;2022-07-30T11:43:16;34.67;24.88
65460;DHT22;52058;49.822;6.754;2022-07-30T11:45:43;35.03;24.83
65460;DHT22;52058;49.822;6.754;2022-07-30T11:48:10;35.86;24.09
65460;DHT22;52058;49.822;6.754;2022-07-30T11:50:36;34.88;24.14
65460;DHT22;52058;49.822;6.754;2022-07-30T11:53:04;33.97;24.77
65460;DHT22;52058;49.822;6.754;2022-07-30T11:55:33;33.33;25.16
65460;DHT22;52058;49.822;6.754;2022-07-30T11:58:00;34.01;25.36
65460;DHT22;52058;49.822;6.754;2022-07-30T12:00:40;33.51;25.98
65460;DHT22;52058;49.822;6.754;2022-07-30T12:03:10;33.57;25.10
65460;DHT22;52058;49.822;6.754;2022-07-30T12:05:36;32.76;25.53
65460;DHT22;52058;49.822;6.754;2022-07-30T12:08:02;32.04;26.67
65460;DHT22;52058;49.822;6.754;2022-07-30T12:10:27;31.23;26.88
65460;DHT22;52058;49.822;6.754;2022-07-30T12:13:05;31.39;27.15
65460;DHT22;52058;49.822;6.754;2022-07-30T12:15:32;31.60;27.65
65460;DHT22;52058;49.822;6.754;2022-07-30T12:17:58;31.59;27.97
65460;DHT22;52058;49.822;6.754;2022-07-30T12:20:25;30.72;27.23
65460;DHT22;52058;49.822;6.754;2022-07-30T12:22:51;30.96;28.34
65460;DHT22;52058;49.822;6.754;2022-07-30T12:25:17;31.29;28.32
65460;DHT22;52058;49.822;6.754;2022-07-30T12:27:47;30.64;28.08
65460;DHT22;52058;49.822;6.754;2022-07-30T12:30:14;30.71;27.66
65460;DHT22;52058;49.822;6.754;2022-07-30T12:32:40;30.94;27.80
65460;DHT22;52058;49.822;6.754;2022-07-30T12:35:06;30.88;26.90
65460;DHT22;52058;49.822;6.754;2022-07-30T12:37:32;30.68;27.53
65460;DHT22;52058;49.822;6.754;2022-07-30T12:40:23;31.32;28.70
65460;DHT22;52058;49.822;6.754;2022-07-30T12:42:49;31.46;27.02
65460;DHT22;52058;49.822;6.754;2022-07-30T12:45:30;31.15;27.72
65460;DHT22;52058;49.822;6.754;2022-07-30T12:47:59;31.25;27.82
65460;DHT22;52058;49.822;6.754;2022-07-30T12:50:26;31.46;29.22
65460;DHT22;52058;49.822;6.754;2022-07-30T12:52:53;31.01;27.42
65460;DHT22;52058;49.822;6.754;2022-07-30T12:55:27;31.35;27.24
65460;DHT22;52058;49.822;6.754;2022-07-30T12:58:00;31.35;27.24
65460;DHT22;52058;49.822;6.754;2022-07-30T13:00:30;31.18;28.45
65460;DHT22;52058;49.822;6.754;2022-07-30T13:02:56;31.09;27.56
65460;DHT22;52058;49.822;6.754;2022-07-30T13:05:44;31.47;28.23
65460;DHT22;52058;49.822;6.754;2022-07-30T13:08:10;31.80;28.05
65460;DHT22;52058;49.822;6.754;2022-07-30T13:10:35;32.17;27.60
65460;DHT22;52058;49.822;6.754;2022-07-30T13:13:00;31.94;26.48
65460;DHT22;52058;49.822;6.754;2022-07-30T13:15:26;31.81;26.50
65460;DHT22;52058;49.822;6.754;2022-07-30T13:17:52;31.86;27.90
65460;DHT22;52058;49.822;6.754;2022-07-30T13:20:17;31.74;27.24
65460;DHT22;52058;49.822;6.754;2022-07-30T13:22:43;31.83;26.75
65460;DHT22;52058;49.822;6.754;2022-07-30T13:25:09;31.08;27.11
65460;DHT22;52058;49.822;6.754;2022-07-30T13:27:35;31.59;28.90
65460;DHT22;52058;49.822;6.754;2022-07-30T13:30:01;31.32;28.25
65460;DHT22;52058;49.822;6.754;2022-07-30T13:32:27;30.80;28.12
65460;DHT22;52058;49.822;6.754;2022-07-30T13:34:52;31.18;28.62
65460;DHT22;52058;49.822;6.754;2022-07-30T13:37:17;30.98;29.15
65460;DHT22;52058;49.822;6.754;2022-07-30T13:39:43;31.25;28.87
65460;DHT22;52058;49.822;6.754;2022-07-30T13:42:08;31.35;28.22
65460;DHT22;52058;49.822;6.754;2022-07-30T13:44:33;30.96;29.12
65460;DHT22;52058;49.822;6.754;2022-07-30T13:46:59;31.45;28.36
65460;DHT22;52058;49.822;6.754;2022-07-30T13:49:24;31.51;28.75
65460;DHT22;52058;49.822;6.754;2022-07-30T13:51:49;31.50;28.44
65460;DHT22;52058;49.822;6.754;2022-07-30T13:54:15;31.09;28.09
65460;DHT22;52058;49.822;6.754;2022-07-30T13:56:40;31.40;28.61
65460;DHT22;52058;49.822;6.754;2022-07-30T13:59:05;31.86;28.42
65460;DHT22;52058;49.822;6.754;2022-07-30T14:01:31;31.63;27.91
65460;DHT22;52058;49.822;6.754;2022-07-30T14:03:56;32.44;29.13
65460;DHT22;52058;49.822;6.754;2022-07-30T14:06:21;31.53;28.28
65460;DHT22;52058;49.822;6.754;2022-07-30T14:08:47;31.51;29.38
65460;DHT22;52058;49.822;6.754;2022-07-30T14:11:12;31.22;29.25
65460;DHT22;52058;49.822;6.754;2022-07-30T14:13:38;31.29;29.78
65460;DHT22;52058;49.822;6.754;2022-07-30T14:16:03;31.21;28.95
65460;DHT22;52058;49.822;6.754;2022-07-30T14:18:29;31.07;28.63
65460;DHT22;52058;49.822;6.754;2022-07-30T14:20:54;31.28;30.08
65460;DHT22;52058;49.822;6.754;2022-07-30T14:23:19;31.03;29.59
65460;DHT22;52058;49.822;6.754;2022-07-30T14:25:45;30.84;29.22
65460;DHT22;52058;49.822;6.754;2022-07-30T14:28:10;30.74;30.23
65460;DHT22;52058;49.822;6.754;2022-07-30T14:30:36;30.72;30.41
65460;DHT22;52058;49.822;6.754;2022-07-30T14:33:01;30.60;30.38
65460;DHT22;52058;49.822;6.754;2022-07-30T14:35:27;30.88;30.76
65460;DHT22;52058;49.822;6.754;2022-07-30T14:37:52;30.80;30.18
65460;DHT22;52058;49.822;6.754;2022-07-30T14:40:18;30.74;30.03
65460;DHT22;52058;49.822;6.754;2022-07-30T14:42:44;31.03;30.45
65460;DHT22;52058;49.822;6.754;2022-07-30T14:45:11;31.02;29.59
65460;DHT22;52058;49.822;6.754;2022-07-30T14:47:36;30.82;29.30
65460;DHT22;52058;49.822;6.754;2022-07-30T14:50:03;30.68;29.52
65460;DHT22;52058;49.822;6.754;2022-07-30T14:52:29;30.95;29.22
65460;DHT22;52058;49.822;6.754;2022-07-30T14:54:54;31.38;30.10
65460;DHT22;52058;49.822;6.754;2022-07-30T14:57:19;31.53;28.63
65460;DHT22;52058;49.822;6.754;2022-07-30T14:59:44;31.30;29.03
65460;DHT22;52058;49.822;6.754;2022-07-30T15:02:10;30.94;28.99
65460;DHT22;52058;49.822;6.754;2022-07-30T15:04:35;30.94;29.87
65460;DHT22;52058;49.822;6.754;2022-07-30T15:07:01;30.88;30.86
65460;DHT22;52058;49.822;6.754;2022-07-30T15:09:26;30.53;30.54
65460;DHT22;52058;49.822;6.754;2022-07-30T15:11:51;30.33;31.02
65460;DHT22;52058;49.822;6.754;2022-07-30T15:14:17;30.03;31.57
65460;DHT22;52058;49.822;6.754;2022-07-30T15:16:42;29.95;31.76
65460;DHT22;52058;49.822;6.754;2022-07-30T15:19:07;29.86;32.64
65460;DHT22;52058;49.822;6.754;2022-07-30T15:21:33;29.85;34.13
65460;DHT22;52058;49.822;6.754;2022-07-30T15:23:58;29.89;32.63
65460;DHT22;52058;49.822;6.754;2022-07-30T15:26:23;29.90;33.07
65460;DHT22;52058;49.822;6.754;2022-07-30T15:28:49;29.51;32.45
65460;DHT22;52058;49.822;6.754;2022-07-30T15:31:14;29.55;32.45
65460;DHT22;52058;49.822;6.754;2022-07-30T15:33:39;29.51;33.48
65460;DHT22;52058;49.822;6.754;2022-07-30T15:36:09;29.38;33.02
65460;DHT22;52058;49.822;6.754;2022-07-30T15:38:35;29.41;33.63
65460;DHT22;52058;49.822;6.754;2022-07-30T15:41:01;29.39;33.02
65460;DHT22;52058;49.822;6.754;2022-07-30T15:43:26;29.30;32.53
65460;DHT22;52058;49.822;6.754;2022-07-30T15:45:52;29.45;33.79
65460;DHT22;52058;49.822;6.754;2022-07-30T15:48:17;29.58;32.96
65460;DHT22;52058;49.822;6.754;2022-07-30T15:50:42;29.44;33.24
65460;DHT22;52058;49.822;6.754;2022-07-30T15:53:08;29.64;32.90
65460;DHT22;52058;49.822;6.754;2022-07-30T15:55:35;29.69;33.08